Las Brenas, Argentina
Current Conditions -  °F | °C
As of 1:00 PM on Friday 31 Oct 2014 (Local Time) from SARE Reporting Station
Broken Clouds Broken Clouds  
Wind Chill: 28°   Ceiling: 10000
Heat Index: 30°   Visibility: 6mi
Dew Point: 21°   Wind: 9mph
Humidity: 66%   Direction: 140°SE
Pressure: 29.8"   Gusts: NA
Location:  27.08°S, 61.08°W
Report Text: SARE 311600Z 14008KT 9999 SCT035 BKN100 28/21 Q1009
Loading
Personal Weather Stations






























Interactive Weather Map
Tropical Storm Tracking
New forecast layout! Learn more

10-Day Weather Forecast

Advertisements
Track Severe Weather on mobile